Time;durP1;ratioP1;P1;durP2;ratioP2;P2;SDS_P1;SDS_P2;PMS_P1;PMS_P2;Temp;Humidity;BMP_temperature;BMP_pressure;BME280_temperature;BME280_humidity;BME280_pressure;Samples;Min_cycle;Max_cycle;Signal;HPM_P1;HPM_P2
2023/03/16 00:01:06;0.00;0.00;0.62;0.00;0.00;0.62;3.67;2.70;;;22.70;22.00;;;;;;2264627;61;20766;-51
2023/03/16 00:03:51;0.00;0.00;0.62;0.00;0.00;0.62;2.83;2.50;;;22.70;22.10;;;;;;2264131;61;20368;-55
2023/03/16 00:06:37;0.00;0.00;0.62;0.00;0.00;0.62;3.47;2.70;;;22.70;22.00;;;;;;2265056;61;20931;-53
2023/03/16 00:09:21;0.00;0.00;0.62;0.00;0.00;0.62;3.47;2.70;;;22.70;22.10;;;;;;2264643;61;20364;-52
2023/03/16 00:12:14;0.00;0.00;0.62;0.00;0.00;0.62;3.10;2.30;;;22.70;22.10;;;;;;2261382;61;20402;-54
2023/03/16 00:15:00;0.00;0.00;0.62;0.00;0.00;0.62;3.93;2.80;;;22.70;22.10;;;;;;2264870;61;20455;-56
2023/03/16 00:17:47;0.00;0.00;0.62;0.00;0.00;0.62;3.30;2.50;;;22.70;22.10;;;;;;2264506;61;20410;-57
2023/03/16 00:20:32;0.00;0.00;0.62;0.00;0.00;0.62;2.60;2.10;;;22.60;22.00;;;;;;2264392;61;20352;-54
2023/03/16 00:23:25;0.00;0.00;0.62;0.00;0.00;0.62;3.03;2.37;;;22.60;22.50;;;;;;2264783;61;20368;-59
2023/03/16 00:26:11;0.00;0.00;0.62;0.00;0.00;0.62;2.40;2.00;;;22.60;22.00;;;;;;2263994;61;20716;-55
2023/03/16 00:28:56;0.00;0.00;0.62;0.00;0.00;0.62;2.73;2.00;;;22.60;22.00;;;;;;2264473;61;20364;-52
2023/03/16 00:31:44;0.00;0.00;0.62;0.00;0.00;0.62;2.50;2.00;;;22.60;22.00;;;;;;2264843;61;20363;-56
2023/03/16 00:34:33;0.00;0.00;0.62;0.00;0.00;0.62;3.13;2.20;;;22.60;22.00;;;;;;2263972;61;20429;-54
2023/03/16 00:37:22;0.00;0.00;0.62;0.00;0.00;0.62;3.03;1.90;;;22.60;22.00;;;;;;2264664;61;20441;-54
2023/03/16 00:40:11;0.00;0.00;0.62;0.00;0.00;0.62;2.30;1.77;;;22.60;22.00;;;;;;2264028;61;20356;-51
2023/03/16 00:42:56;0.00;0.00;0.62;0.00;0.00;0.62;3.20;2.50;;;22.50;21.90;;;;;;2264668;61;20391;-52
2023/03/16 00:45:43;0.00;0.00;0.62;0.00;0.00;0.62;2.40;1.60;;;22.60;22.00;;;;;;2264594;61;20788;-57
2023/03/16 00:48:28;0.00;0.00;0.62;0.00;0.00;0.62;2.70;2.20;;;22.50;21.90;;;;;;2264013;61;20502;-52
2023/03/16 00:51:15;0.00;0.00;0.62;0.00;0.00;0.62;2.77;2.30;;;22.50;21.90;;;;;;2264808;61;20452;-58
2023/03/16 00:54:00;0.00;0.00;0.62;0.00;0.00;0.62;2.53;1.73;;;22.50;22.00;;;;;;2261229;61;20363;-55
2023/03/16 00:56:46;0.00;0.00;0.62;0.00;0.00;0.62;3.20;2.40;;;22.50;22.10;;;;;;2260805;61;20360;-56
2023/03/16 00:59:31;0.00;0.00;0.62;0.00;0.00;0.62;2.40;1.97;;;22.50;22.00;;;;;;2261300;61;20448;-51
2023/03/16 01:02:22;0.00;0.00;0.62;0.00;0.00;0.62;2.23;1.70;;;22.50;22.00;;;;;;2261137;61;20379;-50
2023/03/16 01:05:08;0.00;0.00;0.62;0.00;0.00;0.62;2.37;2.00;;;22.50;21.90;;;;;;2264485;61;20376;-53
2023/03/16 01:07:53;0.00;0.00;0.62;0.00;0.00;0.62;2.87;2.13;;;22.40;21.90;;;;;;2261723;61;20364;-54
2023/03/16 01:10:39;0.00;0.00;0.62;0.00;0.00;0.62;2.20;1.60;;;22.40;21.90;;;;;;2260325;61;20360;-50
2023/03/16 01:13:25;0.00;0.00;0.62;0.00;0.00;0.62;3.33;2.17;;;22.50;22.00;;;;;;2261481;61;20406;-51
2023/03/16 01:16:10;0.00;0.00;0.62;0.00;0.00;0.62;2.10;1.70;;;22.50;22.00;;;;;;2264651;61;20400;-55
2023/03/16 01:18:56;0.00;0.00;0.62;0.00;0.00;0.62;2.10;1.73;;;22.40;21.90;;;;;;2263821;61;20414;-53
2023/03/16 01:21:41;0.00;0.00;0.62;0.00;0.00;0.62;1.97;1.60;;;22.40;22.40;;;;;;2261591;61;20376;-55
2023/03/16 01:24:28;0.00;0.00;0.62;0.00;0.00;0.62;2.13;1.73;;;22.40;21.90;;;;;;2260492;61;20447;-54
2023/03/16 01:27:13;0.00;0.00;0.62;0.00;0.00;0.62;2.37;1.80;;;22.40;21.90;;;;;;2264640;61;20407;-52
2023/03/16 01:30:01;0.00;0.00;0.62;0.00;0.00;0.62;2.80;2.20;;;22.40;21.90;;;;;;2261359;61;20368;-53
2023/03/16 01:32:46;0.00;0.00;0.62;0.00;0.00;0.62;1.87;1.43;;;22.40;21.90;;;;;;2260614;61;20422;-52
2023/03/16 01:35:32;0.00;0.00;0.62;0.00;0.00;0.62;2.20;1.57;;;22.30;21.90;;;;;;2261285;61;20391;-56
2023/03/16 01:38:17;0.00;0.00;0.62;0.00;0.00;0.62;2.83;1.90;;;22.30;21.80;;;;;;2261322;61;20502;-56
2023/03/16 01:41:03;0.00;0.00;0.62;0.00;0.00;0.62;2.67;1.60;;;22.30;21.90;;;;;;2260453;61;20356;-53
2023/03/16 01:43:50;0.00;0.00;0.62;0.00;0.00;0.62;2.30;1.77;;;22.30;21.80;;;;;;2261375;61;20375;-55
2023/03/16 01:46:37;0.00;0.00;0.62;0.00;0.00;0.62;2.40;1.40;;;22.30;21.90;;;;;;2260495;61;20391;-55
2023/03/16 01:49:25;0.00;0.00;0.62;0.00;0.00;0.62;2.87;1.50;;;22.30;21.90;;;;;;2261104;61;20770;-53
2023/03/16 01:52:15;0.00;0.00;0.62;0.00;0.00;0.62;1.80;1.40;;;22.30;21.90;;;;;;2261358;61;20371;-55
2023/03/16 01:55:04;0.00;0.00;0.62;0.00;0.00;0.62;1.80;1.40;;;22.30;21.90;;;;;;2260454;61;20425;-54
2023/03/16 01:57:50;0.00;0.00;0.62;0.00;0.00;0.62;2.30;1.70;;;22.30;21.90;;;;;;2261365;61;20410;-51
2023/03/16 02:00:35;0.00;0.00;0.62;0.00;0.00;0.62;1.90;1.30;;;22.30;21.90;;;;;;2260828;61;20413;-55
2023/03/16 02:03:33;0.00;0.00;0.62;0.00;0.00;0.62;2.30;1.40;;;22.30;21.90;;;;;;2260827;61;20568;-52
2023/03/16 02:06:27;0.00;0.00;0.62;0.00;0.00;0.62;1.90;1.40;;;22.20;21.80;;;;;;2261148;61;20388;-55
2023/03/16 02:09:14;0.00;0.00;0.62;0.00;0.00;0.62;1.97;1.40;;;22.20;21.80;;;;;;2260315;61;20414;-50
2023/03/16 02:12:00;0.00;0.00;0.62;0.00;0.00;0.62;2.13;1.60;;;22.30;21.90;;;;;;2261432;61;20364;-52
2023/03/16 02:14:47;0.00;0.00;0.62;0.00;0.00;0.62;2.17;1.43;;;22.20;21.80;;;;;;2261038;61;20399;-53
2023/03/16 02:17:34;0.00;0.00;0.62;0.00;0.00;0.62;2.60;1.60;;;22.20;21.80;;;;;;2260767;61;20637;-52
2023/03/16 02:20:38;0.00;0.00;0.62;0.00;0.00;0.62;2.20;1.50;;;22.20;21.80;;;;;;2258298;61;20360;-54
2023/03/16 02:23:24;0.00;0.00;0.62;0.00;0.00;0.62;1.70;1.17;;;22.20;21.80;;;;;;2260851;61;20360;-56
2023/03/16 02:26:18;0.00;0.00;0.62;0.00;0.00;0.62;1.93;1.40;;;22.20;21.90;;;;;;2261234;61;20975;-54
2023/03/16 02:29:17;0.00;0.00;0.62;0.00;0.00;0.62;2.40;1.50;;;22.20;21.80;;;;;;2257795;61;20364;-56
2023/03/16 02:32:06;0.00;0.00;0.62;0.00;0.00;0.62;1.80;1.13;;;22.20;21.80;;;;;;2257991;61;20367;-53
2023/03/16 02:34:51;0.00;0.00;0.62;0.00;0.00;0.62;1.40;1.00;;;22.20;21.80;;;;;;2261075;61;20489;-51
2023/03/16 02:37:36;0.00;0.00;0.62;0.00;0.00;0.62;1.90;1.50;;;22.20;21.80;;;;;;2261224;61;20450;-56
2023/03/16 02:40:24;0.00;0.00;0.62;0.00;0.00;0.62;1.97;1.40;;;22.10;21.80;;;;;;2260312;61;20368;-50
2023/03/16 02:43:18;0.00;0.00;0.62;0.00;0.00;0.62;2.00;1.50;;;22.10;21.80;;;;;;2261279;61;20379;-50
2023/03/16 02:46:10;0.00;0.00;0.62;0.00;0.00;0.62;2.00;1.40;;;22.10;21.80;;;;;;2260234;61;20493;-50
2023/03/16 02:49:01;0.00;0.00;0.62;0.00;0.00;0.62;2.67;1.67;;;22.10;21.80;;;;;;2260849;61;20920;-50
2023/03/16 02:51:47;0.00;0.00;0.62;0.00;0.00;0.62;1.80;1.30;;;22.10;21.80;;;;;;2261247;61;20368;-55
2023/03/16 02:54:32;0.00;0.00;0.62;0.00;0.00;0.62;2.03;1.30;;;22.10;21.80;;;;;;2260533;61;20438;-53
2023/03/16 02:57:17;0.00;0.00;0.62;0.00;0.00;0.62;1.97;1.40;;;22.10;21.80;;;;;;2260865;61;20407;-55
2023/03/16 03:00:17;0.00;0.00;0.62;0.00;0.00;0.62;2.10;1.20;;;22.10;21.80;;;;;;2260810;61;20363;-52
2023/03/16 03:03:09;0.00;0.00;0.62;0.00;0.00;0.62;1.57;1.00;;;22.10;21.80;;;;;;2261202;61;20776;-52
2023/03/16 03:05:55;0.00;0.00;0.62;0.00;0.00;0.62;1.50;1.07;;;22.10;21.80;;;;;;2261043;61;20810;-50
2023/03/16 03:08:41;0.00;0.00;0.62;0.00;0.00;0.62;2.20;1.30;;;22.10;21.80;;;;;;2257691;61;20372;-55
2023/03/16 03:11:26;0.00;0.00;0.62;0.00;0.00;0.62;2.10;1.50;;;22.10;21.80;;;;;;2261052;61;20372;-55
2023/03/16 03:14:15;0.00;0.00;0.62;0.00;0.00;0.62;1.67;1.07;;;22.10;21.80;;;;;;2264217;61;20518;-56
2023/03/16 03:17:00;0.00;0.00;0.62;0.00;0.00;0.62;1.73;1.10;;;22.10;21.80;;;;;;2260420;61;20763;-52
2023/03/16 03:19:45;0.00;0.00;0.62;0.00;0.00;0.62;1.50;1.00;;;22.10;21.80;;;;;;2264218;61;20448;-54
2023/03/16 03:22:32;0.00;0.00;0.62;0.00;0.00;0.62;1.80;1.10;;;22.00;21.70;;;;;;2264269;61;20518;-55
2023/03/16 03:25:19;0.00;0.00;0.62;0.00;0.00;0.62;1.63;1.00;;;22.00;21.70;;;;;;2264056;61;20837;-51
2023/03/16 03:28:04;0.00;0.00;0.62;0.00;0.00;0.62;2.40;1.40;;;22.00;21.70;;;;;;2261143;61;20368;-57
2023/03/16 03:30:50;0.00;0.00;0.62;0.00;0.00;0.62;2.07;1.30;;;22.00;21.70;;;;;;2259987;61;20363;-52
2023/03/16 03:33:35;0.00;0.00;0.62;0.00;0.00;0.62;2.23;1.23;;;22.00;21.70;;;;;;2264077;61;20391;-51
2023/03/16 03:36:21;0.00;0.00;0.62;0.00;0.00;0.62;1.80;1.10;;;22.00;21.70;;;;;;2260922;61;20367;-58
2023/03/16 03:39:07;0.00;0.00;0.62;0.00;0.00;0.62;1.63;1.10;;;22.00;21.70;;;;;;2259998;61;20368;-51
2023/03/16 03:41:53;0.00;0.00;0.62;0.00;0.00;0.62;1.50;1.10;;;22.00;21.70;;;;;;2260979;61;20908;-51
2023/03/16 03:44:39;0.00;0.00;0.62;0.00;0.00;0.62;2.00;1.30;;;22.00;21.70;;;;;;2260953;61;20387;-61
2023/03/16 03:47:24;0.00;0.00;0.62;0.00;0.00;0.62;1.90;1.10;;;22.00;21.70;;;;;;2260838;61;21019;-53
2023/03/16 03:50:12;0.00;0.00;0.62;0.00;0.00;0.62;1.80;1.30;;;21.90;21.60;;;;;;2260521;61;20460;-54
2023/03/16 03:53:06;0.00;0.00;0.62;0.00;0.00;0.62;1.77;1.00;;;21.90;21.60;;;;;;2260290;61;20446;-52
2023/03/16 03:56:01;0.00;0.00;0.62;0.00;0.00;0.62;1.50;0.97;;;21.90;21.60;;;;;;2261092;61;20380;-56
2023/03/16 03:58:46;0.00;0.00;0.62;0.00;0.00;0.62;1.60;0.93;;;21.90;21.60;;;;;;2260990;61;20421;-57
2023/03/16 04:01:37;0.00;0.00;0.62;0.00;0.00;0.62;1.53;0.90;;;21.90;21.60;;;;;;2260226;61;20367;-55
2023/03/16 04:04:22;0.00;0.00;0.62;0.00;0.00;0.62;1.70;1.07;;;21.90;21.60;;;;;;2260788;61;20511;-53
2023/03/16 04:07:07;0.00;0.00;0.62;0.00;0.00;0.62;1.90;1.40;;;21.90;21.70;;;;;;2260426;61;20380;-58
2023/03/16 04:09:52;0.00;0.00;0.62;0.00;0.00;0.62;1.90;1.13;;;21.90;21.60;;;;;;2260546;61;20387;-54
2023/03/16 04:12:47;0.00;0.00;0.62;0.00;0.00;0.62;1.67;1.00;;;21.90;21.60;;;;;;2260999;61;20395;-53
2023/03/16 04:15:34;0.00;0.00;0.62;0.00;0.00;0.62;1.60;1.00;;;21.90;21.60;;;;;;2260121;61;20867;-55
2023/03/16 04:18:51;0.00;0.00;0.62;0.00;0.00;0.62;1.63;1.10;;;21.90;21.60;;;;;;2263825;61;20368;-54
2023/03/16 04:21:37;0.00;0.00;0.62;0.00;0.00;0.62;1.50;1.00;;;21.90;21.60;;;;;;2263877;61;20364;-56
2023/03/16 04:24:22;0.00;0.00;0.62;0.00;0.00;0.62;1.67;1.20;;;21.90;21.70;;;;;;2260571;61;20387;-54
2023/03/16 04:27:07;0.00;0.00;0.62;0.00;0.00;0.62;1.60;1.00;;;21.90;21.60;;;;;;2264097;61;20471;-54
2023/03/16 04:29:57;0.00;0.00;0.62;0.00;0.00;0.62;1.80;1.20;;;21.90;21.60;;;;;;2259633;61;20368;-56
2023/03/16 04:32:42;0.00;0.00;0.62;0.00;0.00;0.62;1.67;1.07;;;21.80;21.50;;;;;;2260743;61;20360;-57
2023/03/16 04:35:28;0.00;0.00;0.62;0.00;0.00;0.62;1.97;0.90;;;21.80;21.50;;;;;;2260682;61;20996;-53
2023/03/16 04:38:15;0.00;0.00;0.62;0.00;0.00;0.62;1.60;1.27;;;21.80;21.50;;;;;;2259741;61;20417;-58
2023/03/16 04:41:10;0.00;0.00;0.62;0.00;0.00;0.62;1.40;0.90;;;21.80;21.50;;;;;;2260616;61;20364;-49
2023/03/16 04:44:01;0.00;0.00;0.62;0.00;0.00;0.62;2.63;1.40;;;21.80;21.50;;;;;;2260275;61;20406;-52
2023/03/16 04:46:48;0.00;0.00;0.62;0.00;0.00;0.62;1.80;1.00;;;21.80;21.50;;;;;;2261162;61;20387;-54
2023/03/16 04:49:32;0.00;0.00;0.62;0.00;0.00;0.62;1.50;1.00;;;21.80;21.50;;;;;;2261037;61;20406;-52
2023/03/16 04:52:18;0.00;0.00;0.62;0.00;0.00;0.62;1.60;1.07;;;21.80;21.50;;;;;;2263963;61;20400;-51
2023/03/16 04:55:04;0.00;0.00;0.62;0.00;0.00;0.62;1.50;0.90;;;21.80;21.50;;;;;;2264497;61;20376;-53
2023/03/16 04:57:51;0.00;0.00;0.62;0.00;0.00;0.62;2.10;1.10;;;21.80;21.60;;;;;;2261194;61;20418;-60
2023/03/16 05:00:37;0.00;0.00;0.62;0.00;0.00;0.62;1.50;0.90;;;21.80;21.50;;;;;;2260304;61;20415;-51
2023/03/16 05:03:33;0.00;0.00;0.62;0.00;0.00;0.62;1.67;1.10;;;21.80;21.50;;;;;;2261342;61;20444;-53
2023/03/16 05:06:19;0.00;0.00;0.62;0.00;0.00;0.62;1.50;0.87;;;21.80;21.50;;;;;;2261108;61;20453;-57
2023/03/16 05:09:06;0.00;0.00;0.62;0.00;0.00;0.62;2.17;1.17;;;21.70;21.50;;;;;;2261171;61;20359;-57
2023/03/16 05:11:54;0.00;0.00;0.62;0.00;0.00;0.62;1.40;0.90;;;21.70;21.50;;;;;;2261182;61;20368;-54
2023/03/16 05:14:39;0.00;0.00;0.62;0.00;0.00;0.62;1.60;1.00;;;21.70;21.50;;;;;;2264001;61;20430;-52
2023/03/16 05:17:42;0.00;0.00;0.62;0.00;0.00;0.62;3.20;1.10;;;21.70;21.50;;;;;;2261387;61;20396;-56
2023/03/16 05:20:29;0.00;0.00;0.62;0.00;0.00;0.62;1.50;1.00;;;21.70;21.50;;;;;;2261038;61;20360;-50
2023/03/16 05:23:17;0.00;0.00;0.62;0.00;0.00;0.62;1.70;1.03;;;21.70;21.50;;;;;;2263922;61;20364;-54
2023/03/16 05:26:12;0.00;0.00;0.62;0.00;0.00;0.62;1.50;0.97;;;21.70;21.50;;;;;;2258596;61;20815;-57
2023/03/16 05:28:57;0.00;0.00;0.62;0.00;0.00;0.62;1.50;1.00;;;21.70;21.50;;;;;;2260471;61;20379;-53
2023/03/16 05:31:46;0.00;0.00;0.62;0.00;0.00;0.62;1.47;0.90;;;21.70;21.50;;;;;;2261568;61;20426;-51
2023/03/16 05:34:33;0.00;0.00;0.62;0.00;0.00;0.62;1.53;1.10;;;21.70;21.50;;;;;;2261153;61;20383;-52
2023/03/16 05:37:20;0.00;0.00;0.62;0.00;0.00;0.62;1.50;0.93;;;21.70;21.50;;;;;;2260586;61;20402;-52
2023/03/16 05:40:12;0.00;0.00;0.62;0.00;0.00;0.62;1.50;1.00;;;21.70;21.50;;;;;;2264197;61;20916;-51
2023/03/16 05:42:59;0.00;0.00;0.62;0.00;0.00;0.62;1.70;1.10;;;21.60;21.40;;;;;;2264729;61;20452;-55
2023/03/16 05:45:44;0.00;0.00;0.62;0.00;0.00;0.62;1.63;1.07;;;21.60;21.40;;;;;;2260955;61;20845;-51
2023/03/16 05:48:34;0.00;0.00;0.62;0.00;0.00;0.62;2.33;1.23;;;21.60;21.40;;;;;;2261439;61;20360;-53
2023/03/16 05:51:19;0.00;0.00;0.62;0.00;0.00;0.62;1.70;1.10;;;21.60;21.40;;;;;;2260539;61;20363;-55
2023/03/16 05:54:07;0.00;0.00;0.62;0.00;0.00;0.62;1.70;1.03;;;21.60;21.40;;;;;;2261373;61;20756;-55
2023/03/16 05:57:05;0.00;0.00;0.62;0.00;0.00;0.62;1.40;0.80;;;21.60;21.50;;;;;;2261047;61;20415;-51
2023/03/16 05:59:51;0.00;0.00;0.62;0.00;0.00;0.62;1.50;0.80;;;21.60;21.40;;;;;;2260510;61;20434;-51
2023/03/16 06:02:37;0.00;0.00;0.62;0.00;0.00;0.62;1.60;1.10;;;21.60;21.50;;;;;;2261507;61;20364;-54
2023/03/16 06:05:23;0.00;0.00;0.62;0.00;0.00;0.62;1.53;1.00;;;21.60;21.40;;;;;;2261103;61;20384;-54
2023/03/16 06:08:09;0.00;0.00;0.62;0.00;0.00;0.62;1.90;1.10;;;21.60;21.50;;;;;;2264516;61;20360;-56
2023/03/16 06:10:57;0.00;0.00;0.62;0.00;0.00;0.62;1.60;0.80;;;21.60;21.50;;;;;;2261061;61;20360;-55
2023/03/16 06:13:42;0.00;0.00;0.62;0.00;0.00;0.62;2.10;1.00;;;21.60;21.50;;;;;;2260277;61;20364;-53
2023/03/16 06:16:28;0.00;0.00;0.62;0.00;0.00;0.62;1.40;0.90;;;21.60;21.50;;;;;;2261153;61;20361;-56
2023/03/16 06:19:13;0.00;0.00;0.62;0.00;0.00;0.62;1.60;0.90;;;21.60;21.50;;;;;;2260567;61;20454;-54
2023/03/16 06:21:58;0.00;0.00;0.62;0.00;0.00;0.62;2.03;1.00;;;21.60;21.50;;;;;;2260629;61;20740;-55
2023/03/16 06:24:43;0.00;0.00;0.62;0.00;0.00;0.62;1.70;1.03;;;21.60;21.50;;;;;;2261045;61;20386;-55
2023/03/16 06:27:29;0.00;0.00;0.62;0.00;0.00;0.62;1.67;1.07;;;21.50;21.40;;;;;;2261113;61;20431;-53
2023/03/16 06:30:25;0.00;0.00;0.62;0.00;0.00;0.62;1.60;0.90;;;21.50;21.40;;;;;;2261091;61;20824;-57
2023/03/16 06:33:10;0.00;0.00;0.62;0.00;0.00;0.62;1.67;1.10;;;21.50;21.40;;;;;;2264439;61;20422;-57
2023/03/16 06:35:55;0.00;0.00;0.62;0.00;0.00;0.62;1.40;0.90;;;21.50;21.40;;;;;;2263934;61;20932;-49
2023/03/16 06:38:48;0.00;0.00;0.62;0.00;0.00;0.62;1.63;0.90;;;21.50;21.40;;;;;;2261412;61;20404;-50
2023/03/16 06:41:41;0.00;0.00;0.62;0.00;0.00;0.62;1.60;1.00;;;21.50;21.40;;;;;;2261122;61;20888;-52
2023/03/16 06:44:28;0.00;0.00;0.62;0.00;0.00;0.62;1.93;1.00;;;21.50;21.40;;;;;;2260681;61;20666;-60
2023/03/16 06:47:25;0.00;0.00;0.62;0.00;0.00;0.62;1.70;1.10;;;21.50;21.40;;;;;;2261109;61;20384;-52
2023/03/16 06:50:10;0.00;0.00;0.62;0.00;0.00;0.62;1.90;1.30;;;21.50;21.50;;;;;;2263483;61;20818;-53
2023/03/16 06:52:57;0.00;0.00;0.62;0.00;0.00;0.62;1.73;0.97;;;21.50;22.00;;;;;;2261119;61;20406;-52
2023/03/16 06:55:43;0.00;0.00;0.62;0.00;0.00;0.62;1.60;1.20;;;21.50;21.50;;;;;;2260993;61;20419;-54
2023/03/16 06:58:27;0.00;0.00;0.62;0.00;0.00;0.62;1.87;1.30;;;21.50;21.40;;;;;;2263830;61;20356;-52
2023/03/16 07:01:13;0.00;0.00;0.62;0.00;0.00;0.62;2.13;1.40;;;21.50;21.40;;;;;;2261062;61;20388;-50
2023/03/16 07:03:58;0.00;0.00;0.62;0.00;0.00;0.62;2.60;1.53;;;21.50;21.50;;;;;;2264323;61;20364;-56
2023/03/16 07:06:47;0.00;0.00;0.62;0.00;0.00;0.62;2.27;1.20;;;21.50;21.50;;;;;;2260471;61;20387;-55
2023/03/16 07:09:32;0.00;0.00;0.62;0.00;0.00;0.62;1.70;1.23;;;21.50;21.50;;;;;;2260738;61;20376;-52
2023/03/16 07:12:16;0.00;0.00;0.62;0.00;0.00;0.62;2.17;1.60;;;21.40;21.40;;;;;;2260562;61;20399;-55
2023/03/16 07:15:01;0.00;0.00;0.62;0.00;0.00;0.62;3.73;1.90;;;21.50;21.50;;;;;;2264300;61;20551;-56
2023/03/16 07:17:48;0.00;0.00;0.62;0.00;0.00;0.62;2.70;2.03;;;21.40;21.40;;;;;;2261285;61;20383;-53
2023/03/16 07:20:34;0.00;0.00;0.62;0.00;0.00;0.62;2.90;1.70;;;21.40;21.40;;;;;;2259970;61;20365;-56
2023/03/16 07:23:23;0.00;0.00;0.62;0.00;0.00;0.62;2.23;1.57;;;21.40;21.40;;;;;;2260985;61;20410;-54
2023/03/16 07:26:08;0.00;0.00;0.62;0.00;0.00;0.62;3.27;2.00;;;21.40;21.40;;;;;;2264324;61;20946;-54
2023/03/16 07:28:57;0.00;0.00;0.62;0.00;0.00;0.62;3.00;1.93;;;21.40;21.50;;;;;;2260090;61;20806;-52
2023/03/16 07:31:43;0.00;0.00;0.62;0.00;0.00;0.62;2.30;1.80;;;21.40;21.50;;;;;;2261115;61;20418;-52
2023/03/16 07:34:35;0.00;0.00;0.62;0.00;0.00;0.62;2.40;1.83;;;21.40;21.50;;;;;;2260543;61;20434;-58
2023/03/16 07:37:20;0.00;0.00;0.62;0.00;0.00;0.62;2.50;1.67;;;21.40;21.50;;;;;;2260967;61;20380;-52
2023/03/16 07:40:08;0.00;0.00;0.62;0.00;0.00;0.62;2.50;1.70;;;21.40;21.50;;;;;;2264126;61;20375;-51
2023/03/16 07:42:52;0.00;0.00;0.62;0.00;0.00;0.62;2.93;1.90;;;21.40;21.50;;;;;;2260282;61;20445;-53
2023/03/16 07:45:48;0.00;0.00;0.62;0.00;0.00;0.62;2.83;2.10;;;21.40;21.50;;;;;;2260766;61;20384;-50
2023/03/16 07:48:36;0.00;0.00;0.62;0.00;0.00;0.62;2.80;1.53;;;21.40;21.50;;;;;;2261211;61;20360;-53
2023/03/16 07:51:23;0.00;0.00;0.62;0.00;0.00;0.62;2.53;1.83;;;21.40;21.50;;;;;;2260351;61;20372;-55
2023/03/16 07:54:08;0.00;0.00;0.62;0.00;0.00;0.62;2.70;2.20;;;21.40;21.50;;;;;;2260887;61;20425;-54
2023/03/16 07:56:54;0.00;0.00;0.62;0.00;0.00;0.62;3.07;2.10;;;21.40;21.50;;;;;;2260418;61;20820;-51
2023/03/16 07:59:48;0.00;0.00;0.62;0.00;0.00;0.62;3.63;2.67;;;21.40;21.50;;;;;;2260715;61;20368;-51
2023/03/16 08:02:36;0.00;0.00;0.62;0.00;0.00;0.62;3.77;2.23;;;21.40;21.50;;;;;;2261136;61;20826;-52
2023/03/16 08:05:21;0.00;0.00;0.62;0.00;0.00;0.62;3.60;2.80;;;21.40;21.50;;;;;;2260225;61;20384;-56
2023/03/16 08:08:11;0.00;0.00;0.62;0.00;0.00;0.62;2.80;2.27;;;21.40;21.60;;;;;;2260994;61;20399;-56
2023/03/16 08:10:56;0.00;0.00;0.62;0.00;0.00;0.62;4.03;2.50;;;21.40;21.50;;;;;;2260487;61;20479;-53
2023/03/16 08:13:53;0.00;0.00;0.62;0.00;0.00;0.62;3.43;2.50;;;21.40;21.50;;;;;;2260898;61;20363;-56
2023/03/16 08:16:38;0.00;0.00;0.62;0.00;0.00;0.62;3.40;2.40;;;21.40;21.50;;;;;;2260707;61;20396;-53
2023/03/16 08:19:24;0.00;0.00;0.62;0.00;0.00;0.62;4.00;2.70;;;21.40;21.50;;;;;;2259885;61;20355;-55
2023/03/16 08:22:11;0.00;0.00;0.62;0.00;0.00;0.62;3.20;2.53;;;21.40;21.50;;;;;;2261592;61;20887;-56
2023/03/16 08:25:01;0.00;0.00;0.62;0.00;0.00;0.62;3.50;2.23;;;21.40;21.60;;;;;;2261615;61;20391;-55
2023/03/16 08:27:47;0.00;0.00;0.62;0.00;0.00;0.62;3.27;2.23;;;21.40;21.50;;;;;;2260985;61;20491;-52
2023/03/16 08:30:32;0.00;0.00;0.62;0.00;0.00;0.62;2.87;2.17;;;21.40;21.50;;;;;;2261320;61;20451;-52
2023/03/16 08:33:31;0.00;0.00;0.62;0.00;0.00;0.62;3.27;2.43;;;21.40;21.60;;;;;;2261023;61;20367;-57
2023/03/16 08:36:17;0.00;0.00;0.62;0.00;0.00;0.62;3.27;2.47;;;21.40;21.50;;;;;;2261542;61;20806;-53
2023/03/16 08:39:06;0.00;0.00;0.62;0.00;0.00;0.62;3.30;2.57;;;21.40;21.60;;;;;;2261050;61;20364;-55
2023/03/16 08:41:56;0.00;0.00;0.62;0.00;0.00;0.62;3.17;2.53;;;21.40;21.60;;;;;;2260787;61;20368;-54
2023/03/16 08:44:54;0.00;0.00;0.62;0.00;0.00;0.62;2.77;2.20;;;21.40;21.60;;;;;;2261588;61;20378;-53
2023/03/16 08:47:39;0.00;0.00;0.62;0.00;0.00;0.62;2.90;2.37;;;21.40;21.60;;;;;;2261434;61;20434;-53
2023/03/16 08:50:27;0.00;0.00;0.62;0.00;0.00;0.62;3.40;2.47;;;21.40;21.60;;;;;;2260617;61;20439;-57
2023/03/16 08:53:13;0.00;0.00;0.62;0.00;0.00;0.62;3.20;2.50;;;21.50;21.70;;;;;;2264682;61;20407;-57
2023/03/16 08:56:03;0.00;0.00;0.62;0.00;0.00;0.62;3.80;2.53;;;21.50;21.70;;;;;;2263989;61;20380;-53
2023/03/16 08:58:50;0.00;0.00;0.62;0.00;0.00;0.62;2.50;2.30;;;21.50;21.70;;;;;;2264915;61;20379;-57
2023/03/16 09:01:35;0.00;0.00;0.62;0.00;0.00;0.62;4.10;2.27;;;21.50;21.70;;;;;;2264671;61;20395;-51
2023/03/16 09:04:20;0.00;0.00;0.62;0.00;0.00;0.62;4.13;2.50;;;21.50;21.70;;;;;;2264194;61;20379;-53
2023/03/16 09:07:05;0.00;0.00;0.62;0.00;0.00;0.62;3.03;2.70;;;21.50;21.60;;;;;;2264621;61;20900;-54
2023/03/16 09:09:51;0.00;0.00;0.62;0.00;0.00;0.62;2.90;2.20;;;21.50;21.70;;;;;;2264422;61;20391;-54
2023/03/16 09:12:36;0.00;0.00;0.62;0.00;0.00;0.62;3.37;2.50;;;21.50;21.70;;;;;;2264348;61;20471;-50
2023/03/16 09:15:22;0.00;0.00;0.62;0.00;0.00;0.62;3.80;2.40;;;21.50;22.20;;;;;;2264483;61;20399;-56
2023/03/16 09:18:07;0.00;0.00;0.62;0.00;0.00;0.62;4.27;3.10;;;21.50;21.90;;;;;;2264219;61;20976;-56
2023/03/16 09:20:56;0.00;0.00;0.62;0.00;0.00;0.62;3.07;2.20;;;21.50;21.70;;;;;;2264455;61;20352;-56
2023/03/16 09:23:44;0.00;0.00;0.62;0.00;0.00;0.62;3.80;2.70;;;21.50;21.70;;;;;;2264522;61;20369;-52
2023/03/16 09:26:28;0.00;0.00;0.62;0.00;0.00;0.62;4.40;3.13;;;21.50;21.70;;;;;;2263787;61;20387;-53
2023/03/16 09:29:13;0.00;0.00;0.62;0.00;0.00;0.62;3.30;2.63;;;21.50;21.70;;;;;;2264135;61;20434;-59
2023/03/16 09:31:59;0.00;0.00;0.62;0.00;0.00;0.62;3.80;2.73;;;21.50;21.80;;;;;;2264710;61;20360;-56
2023/03/16 09:34:44;0.00;0.00;0.62;0.00;0.00;0.62;4.37;3.20;;;21.50;21.70;;;;;;2264018;61;20784;-52
2023/03/16 09:37:29;0.00;0.00;0.62;0.00;0.00;0.62;4.20;3.10;;;21.60;21.80;;;;;;2264714;61;20376;-54
2023/03/16 09:40:22;0.00;0.00;0.62;0.00;0.00;0.62;7.13;3.93;;;21.60;21.80;;;;;;2263934;61;20749;-55
2023/03/16 09:43:23;0.00;0.00;0.62;0.00;0.00;0.62;3.40;2.63;;;21.60;21.80;;;;;;2261395;61;20368;-51
2023/03/16 09:46:14;0.00;0.00;0.62;0.00;0.00;0.62;4.23;2.87;;;21.60;21.80;;;;;;2264645;61;20807;-54
2023/03/16 09:49:01;0.00;0.00;0.62;0.00;0.00;0.62;5.23;3.13;;;21.60;21.80;;;;;;2263591;61;20357;-50
2023/03/16 09:51:53;0.00;0.00;0.62;0.00;0.00;0.62;3.70;3.10;;;21.60;21.80;;;;;;2264581;61;20418;-55
2023/03/16 10:06:02;0.00;0.00;0.62;0.00;0.00;0.62;4.30;3.47;;;21.70;21.90;;;;;;2264529;61;20862;-50
2023/03/16 10:08:54;0.00;0.00;0.62;0.00;0.00;0.62;6.20;4.23;;;21.60;21.90;;;;;;2261557;61;20425;-52
2023/03/16 10:11:44;0.00;0.00;0.62;0.00;0.00;0.62;4.87;3.80;;;21.70;22.00;;;;;;2264071;61;20893;-53
2023/03/16 10:14:39;0.00;0.00;0.62;0.00;0.00;0.62;4.67;3.63;;;21.70;22.00;;;;;;2261237;61;20384;-56
2023/03/16 10:17:31;0.00;0.00;0.62;0.00;0.00;0.62;5.33;3.80;;;21.70;21.90;;;;;;2263937;61;20414;-56
2023/03/16 10:20:19;0.00;0.00;0.62;0.00;0.00;0.62;4.33;3.50;;;21.70;21.90;;;;;;2264204;61;20379;-54
2023/03/16 10:23:17;0.00;0.00;0.62;0.00;0.00;0.62;4.80;3.67;;;21.70;21.90;;;;;;2264452;61;20364;-53
2023/03/16 10:26:11;0.00;0.00;0.62;0.00;0.00;0.62;4.33;3.67;;;21.80;22.00;;;;;;2263841;61;20376;-54
2023/03/16 10:28:59;0.00;0.00;0.62;0.00;0.00;0.62;4.67;3.40;;;21.80;22.00;;;;;;2264169;61;20415;-54
2023/03/16 10:31:44;0.00;0.00;0.62;0.00;0.00;0.62;5.00;3.90;;;21.80;22.00;;;;;;2264157;61;20360;-55
2023/03/16 10:34:30;0.00;0.00;0.62;0.00;0.00;0.62;3.97;3.33;;;21.80;22.00;;;;;;2264154;61;20934;-60
2023/03/16 10:37:14;0.00;0.00;0.62;0.00;0.00;0.62;4.10;3.40;;;21.80;22.00;;;;;;2264410;61;20364;-53
2023/03/16 10:40:07;0.00;0.00;0.62;0.00;0.00;0.62;4.10;3.30;;;21.80;22.00;;;;;;2263248;61;20379;-55
2023/03/16 10:42:53;0.00;0.00;0.62;0.00;0.00;0.62;4.27;3.53;;;21.90;22.10;;;;;;2264156;61;20379;-51
2023/03/16 10:45:37;0.00;0.00;0.62;0.00;0.00;0.62;5.70;3.80;;;21.90;22.10;;;;;;2264435;61;20427;-56
2023/03/16 10:48:24;0.00;0.00;0.62;0.00;0.00;0.62;3.80;3.10;;;21.90;22.10;;;;;;2263733;61;20462;-51
2023/03/16 10:51:13;0.00;0.00;0.62;0.00;0.00;0.62;4.10;3.50;;;21.90;22.10;;;;;;2263766;61;20379;-58
2023/03/16 10:54:10;0.00;0.00;0.62;0.00;0.00;0.62;4.23;3.83;;;21.90;22.10;;;;;;2264077;61;20882;-53
2023/03/16 10:56:57;0.00;0.00;0.62;0.00;0.00;0.62;4.50;3.20;;;21.90;22.10;;;;;;2264398;61;20396;-53
2023/03/16 10:59:48;0.00;0.00;0.62;0.00;0.00;0.62;4.20;3.10;;;22.00;22.10;;;;;;2264000;61;20375;-55
2023/03/16 11:02:34;0.00;0.00;0.62;0.00;0.00;0.62;3.90;3.47;;;22.00;22.10;;;;;;2263701;61;20356;-53
2023/03/16 11:05:31;0.00;0.00;0.62;0.00;0.00;0.62;4.10;2.87;;;22.00;22.10;;;;;;2264593;61;20468;-52
2023/03/16 11:08:21;0.00;0.00;0.62;0.00;0.00;0.62;4.83;3.53;;;22.00;22.10;;;;;;2264219;61;20387;-54
2023/03/16 11:11:12;0.00;0.00;0.62;0.00;0.00;0.62;4.70;3.40;;;22.10;22.10;;;;;;2263737;61;20498;-56
2023/03/16 11:14:00;0.00;0.00;0.62;0.00;0.00;0.62;4.23;3.00;;;22.10;22.20;;;;;;2264097;61;20357;-55